Time;durP1;ratioP1;P1;durP2;ratioP2;P2;SDS_P1;SDS_P2;PMS_P1;PMS_P2;Temp;Humidity;BMP_temperature;BMP_pressure;BME280_temperature;BME280_humidity;BME280_pressure;Samples;Min_cycle;Max_cycle;Signal;HPM_P1;HPM_P2
2022/12/23 00:00:31;;;;;;;12.90;8.23;;;;;;;5.66;82.45;100340.56;1734839;82;21826;-78
2022/12/23 00:03:38;;;;;;;10.72;7.12;;;;;;;5.51;82.93;100334.72;1734839;82;21236;-78
2022/12/23 00:06:43;;;;;;;11.45;6.83;;;;;;;5.60;83.06;100333.86;1734779;82;21232;-78
2022/12/23 00:09:49;;;;;;;10.78;6.58;;;;;;;5.76;82.28;100334.12;1734721;82;21188;-78
2022/12/23 00:16:20;;;;;;;10.45;6.92;;;;;;;5.61;82.50;100320.64;1734769;82;21173;-79
2022/12/23 00:19:26;;;;;;;10.35;6.95;;;;;;;5.59;83.18;100318.56;1734872;82;22494;-80
2022/12/23 00:25:55;;;;;;;13.00;7.87;;;;;;;5.73;82.84;100314.55;1734757;82;21169;-80
2022/12/23 00:29:03;;;;;;;10.38;6.28;;;;;;;5.76;82.34;100302.91;1733938;82;21271;-79
2022/12/23 00:32:08;;;;;;;8.10;6.17;;;;;;;5.80;82.42;100299.41;1740988;80;21212;-79
2022/12/23 00:35:08;;;;;;;12.03;6.62;;;;;;;5.81;82.46;100292.47;1765127;81;21177;-80
2022/12/23 00:38:14;;;;;;;15.00;7.67;;;;;;;5.82;82.50;100291.45;1765016;81;21217;-79
2022/12/23 00:44:48;;;;;;;11.95;7.62;;;;;;;5.90;81.99;100278.02;1763822;81;21208;-79
2022/12/23 00:51:17;;;;;;;11.60;6.83;;;;;;;5.85;81.81;100262.67;1765146;81;21196;-78
2022/12/23 00:54:23;;;;;;;15.25;7.12;;;;;;;5.68;82.52;100263.42;1765148;81;21180;-77
2022/12/23 00:57:28;;;;;;;9.18;6.72;;;;;;;5.61;82.92;100266.38;1763610;81;21201;-78
2022/12/23 01:07:21;;;;;;;13.03;6.58;;;;;;;5.88;81.98;100251.53;1764977;81;21245;-77
2022/12/23 01:10:28;;;;;;;11.18;7.12;;;;;;;5.92;81.63;100239.03;1765069;81;21613;-76
2022/12/23 01:13:33;;;;;;;9.53;6.12;;;;;;;5.69;82.33;100247.98;1763365;81;21221;-77
2022/12/23 01:16:40;;;;;;;13.43;6.87;;;;;;;5.80;82.52;100247.33;1763608;81;21158;-77
2022/12/23 01:19:46;;;;;;;10.85;7.00;;;;;;;5.89;82.09;100250.52;1765045;81;21195;-77
2022/12/23 01:22:51;;;;;;;10.20;7.28;;;;;;;5.98;82.01;100237.10;1764127;81;21217;-78
2022/12/23 01:26:10;;;;;;;11.95;7.87;;;;;;;6.01;81.58;100244.93;1765052;81;21193;-77
2022/12/23 01:29:16;;;;;;;12.18;8.25;;;;;;;5.94;81.75;100245.19;1763981;81;21201;-77
2022/12/23 01:32:22;;;;;;;15.78;10.32;;;;;;;6.13;81.28;100245.11;1764064;81;21180;-77
2022/12/23 01:35:28;;;;;;;12.37;8.13;;;;;;;5.88;81.97;100238.43;1770637;81;21184;-77
2022/12/23 01:38:33;;;;;;;11.75;7.87;;;;;;;5.86;81.99;100235.88;1770604;81;21184;-77
2022/12/23 01:45:05;;;;;;;11.68;7.55;;;;;;;5.81;81.82;100241.39;1769928;81;21827;-77
2022/12/23 01:48:32;;;;;;;10.50;7.62;;;;;;;5.83;81.92;100234.83;1770762;81;21189;-77
2022/12/23 01:51:37;;;;;;;14.00;8.60;;;;;;;5.94;81.48;100241.11;1770738;81;21161;-78
2022/12/23 01:54:42;;;;;;;14.23;8.73;;;;;;;6.05;81.56;100238.20;1770632;81;21188;-78
2022/12/23 01:57:48;;;;;;;12.43;8.48;;;;;;;6.29;80.95;100236.30;1770674;81;21164;-78
2022/12/23 02:04:22;;;;;;;10.18;7.50;;;;;;;6.56;79.79;100227.30;1770787;81;21334;-80
2022/12/23 02:10:57;;;;;;;8.85;6.65;;;;;;;6.26;80.14;100228.48;1769324;81;21835;-80
2022/12/23 02:18:32;;;;;;;8.88;6.50;;;;;;;5.85;80.86;100225.17;1770762;81;21161;-79
2022/12/23 02:21:44;;;;;;;9.35;7.05;;;;;;;5.99;80.40;100222.01;1770899;81;21197;-78
2022/12/23 02:25:15;;;;;;;10.00;7.35;;;;;;;6.74;78.22;100213.23;1726352;81;21224;-78
2022/12/23 02:28:59;;;;;;;10.75;6.67;;;;;;;6.65;78.20;100212.80;1770830;81;21555;-79
2022/12/23 02:32:25;;;;;;;13.08;7.65;;;;;;;6.48;78.25;100213.61;1769825;81;21224;-78
2022/12/23 02:35:44;;;;;;;12.43;8.53;;;;;;;6.24;79.27;100205.52;1737605;82;21752;-78
2022/12/23 02:39:25;;;;;;;11.28;7.75;;;;;;;6.02;80.06;100211.33;1737489;82;21202;-78
2022/12/23 02:42:43;;;;;;;11.88;8.93;;;;;;;5.87;81.27;100209.07;1737543;82;21744;-80
2022/12/23 02:46:03;;;;;;;12.90;8.35;;;;;;;5.69;82.55;100213.56;1736359;82;21225;-80
2022/12/23 02:49:16;;;;;;;11.57;8.10;;;;;;;5.85;82.00;100208.38;1737590;82;21186;-80
2022/12/23 02:52:20;;;;;;;11.15;7.78;;;;;;;5.74;82.85;100205.86;1737435;82;21182;-77
2022/12/23 02:55:35;;;;;;;13.93;8.83;;;;;;;6.04;82.19;100206.13;1737640;82;21202;-78
2022/12/23 02:59:01;;;;;;;13.98;9.23;;;;;;;6.18;82.17;100197.98;1737562;82;21194;-79
2022/12/23 03:02:07;;;;;;;15.70;10.75;;;;;;;5.75;83.76;100200.78;1736148;82;21281;-79
2022/12/23 03:05:30;;;;;;;15.65;10.43;;;;;;;6.14;82.95;100199.28;1736205;82;21249;-79
2022/12/23 03:08:40;;;;;;;16.52;11.05;;;;;;;6.28;82.74;100196.06;1737651;82;21190;-78
2022/12/23 03:12:06;;;;;;;17.00;12.37;;;;;;;6.50;82.17;100200.23;1738118;82;21236;-78
2022/12/23 03:15:32;;;;;;;18.48;11.55;;;;;;;6.29;82.82;100202.35;1737549;82;21206;-79
2022/12/23 03:18:49;;;;;;;15.63;10.93;;;;;;;6.58;82.43;100203.02;1737574;82;21162;-78
2022/12/23 03:22:07;;;;;;;14.47;10.95;;;;;;;6.32;83.79;100199.34;1736145;82;21225;-78
2022/12/23 03:25:27;;;;;;;18.90;12.58;;;;;;;6.11;84.88;100201.78;1736164;82;21277;-78
2022/12/23 03:28:48;;;;;;;15.55;12.35;;;;;;;6.11;84.97;100198.22;1737758;82;21313;-78
2022/12/23 03:31:53;;;;;;;19.32;12.60;;;;;;;5.95;85.59;100200.73;1736694;82;21201;-78
2022/12/23 03:35:00;;;;;;;14.80;11.70;;;;;;;5.99;85.58;100202.16;1749501;81;21205;-78
2022/12/23 03:38:05;;;;;;;17.77;13.72;;;;;;;6.37;84.91;100199.23;1765103;81;21740;-78
2022/12/23 03:41:15;;;;;;;19.80;12.07;;;;;;;6.70;82.89;100209.11;1765086;81;21228;-77
2022/12/23 03:44:25;;;;;;;18.60;14.07;;;;;;;6.46;83.76;100204.27;1763723;81;21220;-78
2022/12/23 03:47:36;;;;;;;23.18;14.07;;;;;;;6.89;82.16;100202.16;1763855;81;21220;-78
2022/12/23 03:50:41;;;;;;;17.42;12.55;;;;;;;6.80;82.42;100207.16;1765154;81;21231;-79
2022/12/23 03:53:53;;;;;;;17.98;13.40;;;;;;;6.56;83.17;100205.55;1764726;81;21187;-78
2022/12/23 03:56:57;;;;;;;20.82;14.05;;;;;;;6.77;82.67;100200.67;1765120;81;21188;-78
2022/12/23 04:00:03;;;;;;;18.70;13.53;;;;;;;6.94;82.79;100203.05;1765050;81;21743;-78
2022/12/23 04:03:35;;;;;;;19.85;14.28;;;;;;;6.60;83.45;100199.66;1763670;81;21220;-78
2022/12/23 04:06:55;;;;;;;18.37;13.32;;;;;;;6.57;83.46;100195.03;1765034;81;21185;-79
2022/12/23 04:10:00;;;;;;;20.15;13.90;;;;;;;6.50;83.88;100200.23;1759511;81;21743;-78
2022/12/23 04:13:06;;;;;;;23.90;14.95;;;;;;;6.32;84.89;100204.27;1764928;81;21237;-78
2022/12/23 04:16:12;;;;;;;21.85;15.00;;;;;;;6.09;85.79;100204.31;1765173;81;21248;-79
2022/12/23 04:19:18;;;;;;;21.17;13.95;;;;;;;6.43;84.41;100197.77;1765102;81;21185;-79
2022/12/23 04:22:23;;;;;;;22.70;15.28;;;;;;;6.52;84.55;100195.48;1763677;81;21199;-79
2022/12/23 04:25:29;;;;;;;22.75;15.63;;;;;;;6.50;84.06;100192.59;1763655;81;21208;-79
2022/12/23 04:28:36;;;;;;;18.90;14.03;;;;;;;6.39;83.99;100190.41;1763615;81;21235;-78
2022/12/23 04:31:43;;;;;;;18.90;13.65;;;;;;;6.58;83.94;100187.22;1763636;81;21239;-78
2022/12/23 04:34:48;;;;;;;20.88;14.30;;;;;;;6.43;84.23;100182.81;1763112;81;21189;-78
2022/12/23 04:37:54;;;;;;;17.80;12.70;;;;;;;6.31;84.43;100176.76;1731500;83;21912;-78
2022/12/23 04:41:00;;;;;;;21.23;13.30;;;;;;;6.19;85.31;100173.88;1710643;84;21250;-78
2022/12/23 04:44:06;;;;;;;17.85;13.58;;;;;;;6.55;84.22;100173.96;1710625;84;21202;-78
2022/12/23 04:47:12;;;;;;;18.37;13.13;;;;;;;6.82;83.89;100179.34;1731067;83;21332;-78
2022/12/23 04:50:23;;;;;;;22.87;13.68;;;;;;;6.57;84.15;100176.00;1710692;84;21226;-79
2022/12/23 04:53:29;;;;;;;18.57;11.90;;;;;;;6.56;84.70;100168.87;1710890;84;22541;-78
2022/12/23 04:56:34;;;;;;;19.65;12.03;;;;;;;6.58;84.83;100168.20;1731670;83;21210;-80
2022/12/23 04:59:39;;;;;;;19.60;11.30;;;;;;;6.75;84.53;100163.80;1710358;84;21182;-80
2022/12/23 05:02:46;;;;;;;18.52;12.20;;;;;;;6.80;84.34;100167.75;1709746;84;21859;-76
2022/12/23 05:05:52;;;;;;;21.65;13.22;;;;;;;6.35;85.87;100171.84;1729820;83;21222;-78
2022/12/23 05:08:50;;;;;;;19.75;13.38;;;;;;;6.31;86.21;100167.25;1710362;84;21195;-78
2022/12/23 05:11:42;;;;;;;19.17;14.05;;;;;;;6.42;85.60;100177.04;1708878;84;21317;-78
2022/12/23 05:14:29;;;;;;;29.05;14.90;;;;;;;6.24;86.48;100177.50;1730501;83;21317;-78
2022/12/23 05:17:21;;;;;;;21.45;14.47;;;;;;;6.22;87.06;100175.45;1709777;84;21234;-78
2022/12/23 05:20:08;;;;;;;20.88;13.93;;;;;;;6.26;87.17;100175.51;1710392;84;21745;-78
2022/12/23 05:23:01;;;;;;;20.50;13.90;;;;;;;6.25;86.97;100181.92;1732041;83;21163;-78
2022/12/23 05:26:05;;;;;;;21.00;14.10;;;;;;;6.50;87.08;100183.08;1709805;84;21258;-78
2022/12/23 05:29:11;;;;;;;22.90;15.30;;;;;;;6.46;87.01;100187.95;1710816;84;21209;-78
2022/12/23 05:32:15;;;;;;;18.60;13.70;;;;;;;6.25;87.34;100190.07;1730623;83;21253;-77
2022/12/23 05:35:21;;;;;;;22.42;13.93;;;;;;;6.39;87.13;100196.35;1710454;84;21202;-77
2022/12/23 05:38:49;;;;;;;19.25;13.55;;;;;;;6.68;86.67;100200.27;1852529;76;22236;-78
2022/12/23 05:41:55;;;;;;;21.85;14.13;;;;;;;6.53;86.53;100200.41;1811027;77;21383;-78
2022/12/23 05:45:01;;;;;;;22.20;15.00;;;;;;;6.77;86.17;100204.75;1822855;77;21256;-76
2022/12/23 05:48:07;;;;;;;21.45;15.48;;;;;;;6.68;85.82;100204.34;1807132;77;21236;-78
2022/12/23 05:51:12;;;;;;;20.65;14.70;;;;;;;7.13;84.62;100200.67;1801757;78;21189;-79
2022/12/23 05:54:18;;;;;;;23.87;15.55;;;;;;;7.06;84.91;100205.05;1803888;77;21286;-79
2022/12/23 05:57:24;;;;;;;21.60;15.72;;;;;;;7.26;83.81;100209.30;1811281;77;21791;-79
2022/12/23 06:00:30;;;;;;;19.55;14.70;;;;;;;7.01;84.79;100210.07;1802814;78;21141;-79
2022/12/23 06:03:37;;;;;;;20.27;13.15;;;;;;;6.93;84.82;100211.38;1746176;80;21216;-80
2022/12/23 06:06:42;;;;;;;16.67;12.00;;;;;;;7.07;84.40;100210.83;1745394;81;21814;-80
2022/12/23 06:09:49;;;;;;;22.20;14.33;;;;;;;6.90;85.28;100209.81;1736179;81;21257;-80
2022/12/23 06:12:54;;;;;;;19.73;13.85;;;;;;;6.94;85.27;100213.08;1738752;80;21244;-80
2022/12/23 06:16:01;;;;;;;20.82;12.88;;;;;;;7.14;84.60;100215.98;1735326;81;21206;-79
2022/12/23 06:19:06;;;;;;;22.37;14.65;;;;;;;7.33;83.90;100209.00;1764444;79;21228;-78
2022/12/23 06:22:12;;;;;;;19.65;13.10;;;;;;;6.74;85.98;100209.16;1762162;79;21314;-77
2022/12/23 06:25:19;;;;;;;23.50;14.35;;;;;;;6.95;85.44;100205.27;1766747;81;21750;-79
2022/12/23 06:28:24;;;;;;;20.85;13.98;;;;;;;7.09;84.97;100210.16;1827800;77;21197;-79
2022/12/23 06:31:30;;;;;;;27.37;13.38;;;;;;;7.05;84.51;100210.11;1802144;78;21209;-78
2022/12/23 06:34:36;;;;;;;19.35;13.40;;;;;;;7.08;84.97;100205.23;1806749;78;21843;-78
2022/12/23 06:37:36;;;;;;;22.25;13.00;;;;;;;7.29;83.68;100203.55;1799884;77;21758;-79
2022/12/23 06:40:41;;;;;;;20.43;12.58;;;;;;;7.34;83.43;100199.84;1802122;78;21867;-79
2022/12/23 06:44:02;;;;;;;23.47;13.35;;;;;;;7.42;82.92;100194.44;1816316;77;21196;-78
2022/12/23 06:47:17;;;;;;;24.43;14.25;;;;;;;7.23;83.34;100196.00;1808653;77;21307;-79
2022/12/23 06:50:22;;;;;;;19.60;12.73;;;;;;;7.11;83.13;100195.41;1802203;77;21222;-79
2022/12/23 06:53:28;;;;;;;24.02;14.78;;;;;;;6.98;84.24;100193.58;1744320;80;21743;-80
2022/12/23 06:56:33;;;;;;;19.25;12.78;;;;;;;6.87;84.73;100189.23;1767357;79;21324;-79
2022/12/23 06:59:39;;;;;;;20.60;12.85;;;;;;;6.96;84.30;100192.86;1802739;77;21228;-79
2022/12/23 07:02:45;;;;;;;21.07;13.22;;;;;;;7.08;83.76;100193.49;1736006;80;21213;-78
2022/12/23 07:05:56;;;;;;;19.82;12.13;;;;;;;7.05;83.29;100187.00;1798659;77;21223;-78
2022/12/23 07:09:01;;;;;;;19.37;11.40;;;;;;;7.15;82.94;100187.76;1801530;77;21209;-81
2022/12/23 07:12:10;;;;;;;19.65;11.12;;;;;;;7.18;82.31;100188.81;1800075;77;21211;-79
2022/12/23 07:15:17;;;;;;;20.57;12.18;;;;;;;7.09;82.35;100199.27;1813002;77;21130;-79
2022/12/23 07:18:21;;;;;;;17.35;11.83;;;;;;;7.19;81.69;100189.16;1803989;77;21243;-79
2022/12/23 07:21:26;;;;;;;17.07;11.25;;;;;;;7.30;81.18;100198.96;1745512;80;21279;-78
2022/12/23 07:24:36;;;;;;;18.98;10.45;;;;;;;7.43;80.56;100193.94;1748727;80;21249;-80
2022/12/23 07:27:41;;;;;;;14.93;10.10;;;;;;;7.52;79.96;100190.26;1776191;78;21418;-80
2022/12/23 07:30:46;;;;;;;15.90;10.35;;;;;;;7.68;78.99;100188.17;1742911;80;21189;-80
2022/12/23 07:33:53;;;;;;;15.45;10.50;;;;;;;7.68;78.69;100181.36;1807219;77;21766;-81
2022/12/23 07:36:58;;;;;;;17.25;10.55;;;;;;;7.71;78.46;100185.62;1735654;80;21231;-80
2022/12/23 07:40:04;;;;;;;19.65;11.05;;;;;;;7.66;78.41;100188.31;1737349;80;21208;-80
2022/12/23 07:43:11;;;;;;;18.67;10.88;;;;;;;7.69;78.08;100191.23;1727245;80;21276;-79
2022/12/23 07:46:16;;;;;;;17.70;12.28;;;;;;;7.52;79.31;100190.77;1732424;80;21223;-78
2022/12/23 07:49:22;;;;;;;15.68;10.10;;;;;;;7.79;77.72;100189.25;1802459;77;22162;-78
2022/12/23 07:52:28;;;;;;;18.80;11.63;;;;;;;7.72;77.99;100189.56;1802586;77;21153;-79
2022/12/23 07:55:34;;;;;;;17.27;10.70;;;;;;;8.56;75.39;100192.86;1814897;78;21228;-80
2022/12/23 07:58:39;;;;;;;13.85;8.85;;;;;;;9.45;70.54;100192.06;1730000;81;21308;-80
2022/12/23 08:01:45;;;;;;;15.48;9.68;;;;;;;9.61;69.26;100191.73;1788276;78;21271;-80
2022/12/23 08:04:53;;;;;;;16.10;10.18;;;;;;;9.64;68.62;100185.39;1793976;77;21232;-80
2022/12/23 08:07:59;;;;;;;16.85;10.18;;;;;;;9.47;68.82;100181.84;1807629;77;21261;-80
2022/12/23 08:11:09;;;;;;;14.95;9.88;;;;;;;9.21;69.71;100182.02;1799743;78;21228;-78
2022/12/23 08:14:14;;;;;;;15.05;9.98;;;;;;;9.17;69.26;100182.52;1772478;80;21276;-78
2022/12/23 08:17:20;;;;;;;17.10;9.58;;;;;;;9.10;69.17;100178.79;1733347;80;21231;-78
2022/12/23 08:20:26;;;;;;;16.57;9.75;;;;;;;9.39;68.41;100168.20;1753888;81;21229;-79
2022/12/23 08:23:32;;;;;;;16.32;9.68;;;;;;;9.23;68.41;100175.56;1750531;80;21161;-79
2022/12/23 08:26:39;;;;;;;15.98;10.23;;;;;;;9.22;68.20;100174.68;1731177;81;21208;-79
2022/12/23 08:29:45;;;;;;;22.32;10.13;;;;;;;8.93;69.16;100174.67;1765941;80;21248;-78
2022/12/23 08:32:51;;;;;;;13.90;10.03;;;;;;;8.98;69.00;100170.07;1733879;81;21200;-79
2022/12/23 08:35:59;;;;;;;17.20;9.98;;;;;;;8.84;68.81;100171.59;1743264;80;21233;-79
2022/12/23 08:39:05;;;;;;;19.87;10.70;;;;;;;9.17;67.90;100167.52;1744206;80;21206;-80
2022/12/23 08:42:11;;;;;;;19.15;9.83;;;;;;;9.26;67.28;100162.40;1748122;80;21221;-80
2022/12/23 08:45:16;;;;;;;15.13;10.53;;;;;;;9.31;66.67;100173.65;1803546;78;22552;-79
2022/12/23 08:48:22;;;;;;;18.55;10.38;;;;;;;9.50;66.75;100170.22;1801312;78;21172;-79
2022/12/23 08:51:29;;;;;;;14.25;10.60;;;;;;;9.20;67.21;100168.55;1801642;77;21258;-79
2022/12/23 08:54:35;;;;;;;20.20;11.78;;;;;;;8.70;68.87;100170.88;1816724;77;21185;-79
2022/12/23 08:57:41;;;;;;;18.02;12.05;;;;;;;8.98;68.79;100163.77;1797408;78;21224;-80
2022/12/23 09:00:48;;;;;;;17.57;11.85;;;;;;;9.28;68.15;100156.79;1802239;78;21209;-80
2022/12/23 09:03:53;;;;;;;19.85;12.40;;;;;;;9.47;67.25;100163.25;1805792;78;21851;-80
2022/12/23 09:06:59;;;;;;;18.02;12.73;;;;;;;9.11;68.05;100162.23;1801607;78;21791;-80
2022/12/23 09:10:04;;;;;;;23.42;12.82;;;;;;;9.09;68.56;100159.36;1806113;78;21215;-80
2022/12/23 09:13:10;;;;;;;18.75;12.55;;;;;;;9.01;68.82;100160.70;1798856;78;21175;-80
2022/12/23 09:16:17;;;;;;;20.45;12.53;;;;;;;9.13;69.00;100153.90;1812774;77;21794;-80
2022/12/23 09:19:23;;;;;;;26.87;13.65;;;;;;;9.26;68.71;100150.12;1800354;78;21248;-80
2022/12/23 09:22:28;;;;;;;23.70;14.80;;;;;;;9.09;68.92;100152.53;1775501;79;21209;-80
2022/12/23 09:25:36;;;;;;;22.05;14.87;;;;;;;9.38;67.90;100142.45;1747630;81;21772;-80
2022/12/23 09:28:42;;;;;;;23.85;15.15;;;;;;;9.29;67.81;100150.30;1744078;80;21169;-80
2022/12/23 09:31:48;;;;;;;27.58;14.53;;;;;;;9.29;68.10;100147.57;1745980;80;21201;-80
2022/12/23 09:34:53;;;;;;;21.02;14.15;;;;;;;9.24;68.28;100150.81;1732945;81;21189;-80
2022/12/23 09:38:00;;;;;;;25.02;14.93;;;;;;;9.43;68.01;100144.98;1729949;80;21238;-80
2022/12/23 09:41:33;;;;;;;27.15;15.80;;;;;;;9.31;68.62;100145.51;1739566;80;21212;-80
2022/12/23 09:45:01;;;;;;;22.98;14.30;;;;;;;9.31;69.04;100134.08;1810149;77;21223;-79
2022/12/23 09:48:06;;;;;;;25.20;16.30;;;;;;;9.05;69.70;100131.55;1805213;78;21303;-80
2022/12/23 09:51:12;;;;;;;25.30;15.30;;;;;;;9.08;69.83;100123.52;1818586;77;21780;-79
2022/12/23 09:54:35;;;;;;;25.82;15.85;;;;;;;9.09;69.90;100127.46;1807412;78;21198;-79
2022/12/23 09:58:10;;;;;;;28.02;16.48;;;;;;;9.09;70.19;100121.16;1814504;77;21373;-80
2022/12/23 10:01:37;;;;;;;28.45;16.45;;;;;;;9.25;70.11;100118.40;1790056;77;21213;-79
2022/12/23 10:05:24;;;;;;;28.62;16.23;;;;;;;9.05;70.53;100115.70;1803442;78;21155;-79
2022/12/23 10:08:50;;;;;;;24.00;15.45;;;;;;;9.00;70.73;100109.39;1810418;77;21941;-78
2022/12/23 10:11:55;;;;;;;24.35;15.98;;;;;;;9.04;70.77;100105.30;1796681;78;21520;-78
2022/12/23 10:15:03;;;;;;;27.30;16.62;;;;;;;9.13;70.73;100097.96;1799384;77;21197;-78
2022/12/23 10:18:14;;;;;;;25.37;15.83;;;;;;;9.20;70.92;100095.72;1751196;80;21287;-79
2022/12/23 10:21:48;;;;;;;28.10;15.43;;;;;;;9.13;71.36;100097.96;1746462;80;21177;-79
2022/12/23 10:24:55;;;;;;;23.73;15.35;;;;;;;9.10;71.49;100088.75;1747888;80;21791;-80
2022/12/23 10:28:00;;;;;;;28.62;13.50;;;;;;;9.27;70.78;100097.74;1808649;77;21271;-79
2022/12/23 10:31:11;;;;;;;25.10;16.00;;;;;;;9.12;71.44;100088.89;1796913;77;21221;-79
2022/12/23 10:34:47;;;;;;;27.93;16.35;;;;;;;9.19;71.60;100083.63;1803363;77;21712;-80
2022/12/23 10:38:00;;;;;;;26.35;17.02;;;;;;;9.11;71.71;100087.72;1799738;78;21874;-79
2022/12/23 10:41:41;;;;;;;23.32;15.40;;;;;;;9.15;71.54;100082.25;1802328;78;21189;-80
2022/12/23 10:45:07;;;;;;;30.50;16.77;;;;;;;8.99;71.63;100084.50;1762195;80;21308;-80
2022/12/23 10:48:43;;;;;;;26.50;16.27;;;;;;;8.86;72.41;100090.98;1748925;80;21220;-80
2022/12/23 10:52:00;;;;;;;28.35;17.62;;;;;;;9.03;72.22;100082.26;1786903;78;22350;-80
2022/12/23 10:55:06;;;;;;;26.30;17.05;;;;;;;9.05;72.42;100074.77;1804898;78;21260;-81
2022/12/23 10:58:21;;;;;;;26.17;16.40;;;;;;;9.29;71.82;100074.73;1800795;77;21192;-80
2022/12/23 11:01:27;;;;;;;23.83;16.07;;;;;;;9.40;71.42;100075.71;1809245;77;21188;-80
2022/12/23 11:04:42;;;;;;;34.48;18.10;;;;;;;9.30;71.58;100079.67;1803304;77;21442;-80
2022/12/23 11:07:49;;;;;;;28.47;17.95;;;;;;;9.23;71.75;100072.70;1787440;78;21170;-80
2022/12/23 11:10:55;;;;;;;22.75;15.23;;;;;;;9.32;71.44;100076.27;1800414;77;21272;-80
2022/12/23 11:14:02;;;;;;;29.20;19.20;;;;;;;9.24;72.06;100081.73;1798967;78;21217;-80
2022/12/23 11:17:08;;;;;;;27.40;16.70;;;;;;;9.41;71.85;100081.54;1792126;77;21487;-80
2022/12/23 11:20:23;;;;;;;29.50;16.75;;;;;;;9.41;71.78;100083.38;1795376;77;21823;-79
2022/12/23 11:23:37;;;;;;;34.88;19.20;;;;;;;9.16;72.34;100070.31;1797009;78;21197;-78
2022/12/23 11:26:43;;;;;;;26.00;16.73;;;;;;;9.08;72.95;100076.66;1801773;77;21181;-79
2022/12/23 11:29:57;;;;;;;27.02;17.35;;;;;;;9.18;72.48;100073.22;1811012;77;21251;-78
2022/12/23 11:33:03;;;;;;;30.65;17.65;;;;;;;9.11;72.58;100065.89;1826111;77;21608;-79
2022/12/23 11:36:26;;;;;;;30.68;19.92;;;;;;;9.12;72.71;100068.95;1737881;81;21229;-79
2022/12/23 11:39:40;;;;;;;28.52;18.05;;;;;;;9.13;72.79;100068.80;1809655;77;21791;-79
2022/12/23 11:42:47;;;;;;;24.75;16.25;;;;;;;9.17;72.64;100073.38;1731689;82;21221;-80
2022/12/23 11:45:52;;;;;;;31.37;18.95;;;;;;;9.10;72.78;100066.92;1753511;80;21213;-79
2022/12/23 11:49:22;;;;;;;30.30;18.07;;;;;;;8.99;73.04;100066.77;1756748;80;21263;-79
2022/12/23 11:52:30;;;;;;;29.67;17.95;;;;;;;9.12;72.70;100065.70;1750227;80;21223;-79
2022/12/23 11:55:37;;;;;;;34.38;19.70;;;;;;;9.08;72.96;100063.49;1811320;77;21208;-78
2022/12/23 11:58:52;;;;;;;34.18;19.12;;;;;;;9.07;73.18;100065.89;1788430;79;21520;-79
2022/12/23 12:01:58;;;;;;;34.95;21.45;;;;;;;8.95;73.69;100059.44;1798422;77;21252;-79
2022/12/23 12:05:12;;;;;;;31.42;20.32;;;;;;;9.03;73.82;100064.52;1794469;77;21208;-79
2022/12/23 12:08:25;;;;;;;37.60;20.88;;;;;;;9.08;73.71;100064.86;1794642;79;21220;-79
2022/12/23 12:11:37;;;;;;;29.63;20.23;;;;;;;9.19;73.39;100061.78;1804012;78;21130;-79
2022/12/23 12:14:58;;;;;;;34.03;20.30;;;;;;;9.14;73.82;100073.73;1794557;78;21524;-79
2022/12/23 12:18:04;;;;;;;33.25;20.57;;;;;;;9.05;73.68;100077.50;1794953;79;21251;-79
2022/12/23 12:21:17;;;;;;;35.33;20.50;;;;;;;8.98;73.52;100076.47;1753330;80;21244;-79
2022/12/23 12:24:48;;;;;;;34.30;19.95;;;;;;;8.97;73.60;100075.62;1788486;77;21882;-79
2022/12/23 12:28:02;;;;;;;37.55;21.77;;;;;;;8.93;73.83;100082.44;1779389;79;21212;-78
2022/12/23 12:31:28;;;;;;;34.10;21.97;;;;;;;8.90;74.07;100075.47;1792248;79;21193;-79
2022/12/23 12:34:58;;;;;;;33.42;20.37;;;;;;;8.91;74.25;100083.98;1800937;77;21204;-78
2022/12/23 12:38:15;;;;;;;35.35;20.32;;;;;;;8.96;74.35;100080.23;1807699;77;21209;-79
2022/12/23 12:41:38;;;;;;;33.80;22.02;;;;;;;8.90;74.83;100077.34;1793035;77;21857;-78
2022/12/23 12:44:50;;;;;;;39.60;21.85;;;;;;;8.44;76.52;100079.19;1804450;79;21845;-78
2022/12/23 12:51:54;;;;;;;37.08;22.45;;;;;;;8.60;76.49;100073.41;1802562;77;21233;-80
2022/12/23 12:55:12;;;;;;;33.67;22.35;;;;;;;8.65;76.15;100073.74;1813645;78;21219;-78
2022/12/23 12:58:23;;;;;;;38.70;23.38;;;;;;;8.43;76.56;100066.59;1801227;78;22491;-78
2022/12/23 13:02:01;;;;;;;37.53;22.22;;;;;;;8.38;76.80;100074.41;1759176;80;21190;-78
2022/12/23 13:05:45;;;;;;;39.63;21.52;;;;;;;8.43;76.39;100074.77;1790924;77;21243;-78
2022/12/23 13:09:00;;;;;;;39.45;21.93;;;;;;;8.34;76.53;100077.09;1799874;77;21208;-78
2022/12/23 13:12:22;;;;;;;35.48;21.42;;;;;;;8.32;76.68;100074.18;1785883;77;21742;-78
2022/12/23 13:15:54;;;;;;;36.55;22.13;;;;;;;8.04;77.63;100075.81;1824177;77;21756;-78
2022/12/23 13:19:32;;;;;;;41.10;22.82;;;;;;;7.99;77.91;100064.56;1811217;78;21181;-78
2022/12/23 13:22:40;;;;;;;34.45;21.37;;;;;;;8.13;77.69;100061.71;1803031;77;21236;-78
2022/12/23 13:25:51;;;;;;;37.65;23.02;;;;;;;8.14;77.36;100057.48;1803061;77;21202;-78
2022/12/23 13:29:02;;;;;;;36.40;22.95;;;;;;;8.16;77.28;100056.79;1797745;77;21181;-78
2022/12/23 13:32:54;;;;;;;37.60;23.42;;;;;;;8.10;77.86;100057.98;1800689;78;21236;-78
2022/12/23 13:36:19;;;;;;;39.20;24.12;;;;;;;8.18;77.63;100058.82;1822333;77;21548;-78
2022/12/23 13:39:29;;;;;;;37.80;21.68;;;;;;;8.19;77.54;100061.06;1748300;80;21806;-80
2022/12/23 13:42:38;;;;;;;32.03;21.12;;;;;;;8.22;77.56;100057.98;1803355;79;21244;-77
2022/12/23 13:45:44;;;;;;;42.35;22.32;;;;;;;8.30;77.28;100062.09;1812595;78;21752;-80
2022/12/23 13:49:03;;;;;;;45.30;24.43;;;;;;;8.29;77.49;100061.77;1818240;77;21197;-80
2022/12/23 13:52:26;;;;;;;38.83;21.23;;;;;;;8.32;77.43;100064.13;1794175;77;21205;-80
2022/12/23 13:55:52;;;;;;;31.57;20.82;;;;;;;8.25;77.61;100057.66;1835585;78;21184;-79
2022/12/23 13:58:58;;;;;;;35.58;21.35;;;;;;;8.39;77.26;100064.36;1815337;78;22076;-79
2022/12/23 14:02:03;;;;;;;31.55;20.05;;;;;;;8.20;77.74;100062.77;1803259;77;21742;-79
2022/12/23 14:05:08;;;;;;;34.50;21.30;;;;;;;8.22;78.01;100059.86;1800902;79;21200;-79
2022/12/23 14:08:31;;;;;;;37.67;22.67;;;;;;;8.20;77.98;100070.94;1798340;79;21217;-79
2022/12/23 14:11:39;;;;;;;34.23;21.30;;;;;;;8.39;77.29;100070.66;1819649;77;21275;-79
2022/12/23 14:14:49;;;;;;;34.63;22.30;;;;;;;8.36;77.16;100067.37;1796745;77;21219;-79
2022/12/23 14:18:14;;;;;;;36.93;22.93;;;;;;;8.33;77.47;100065.02;1805661;77;21212;-79
2022/12/23 14:21:30;;;;;;;42.83;22.75;;;;;;;8.24;77.50;100068.23;1765880;80;21192;-80
2022/12/23 14:25:11;;;;;;;41.28;22.42;;;;;;;8.03;77.97;100069.18;1728049;80;21238;-79
2022/12/23 14:28:53;;;;;;;36.63;20.37;;;;;;;8.01;78.38;100064.42;1726387;81;21217;-78
2022/12/23 14:32:03;;;;;;;49.35;22.67;;;;;;;8.03;78.16;100071.39;1748962;81;21213;-79
2022/12/23 14:35:32;;;;;;;34.23;20.97;;;;;;;7.99;78.48;100070.52;1758066;79;21528;-79
2022/12/23 14:38:41;;;;;;;33.10;20.25;;;;;;;8.14;77.78;100064.80;1749382;80;21243;-79
2022/12/23 14:41:57;;;;;;;36.55;20.72;;;;;;;7.99;77.93;100063.72;1798933;78;21216;-79
2022/12/23 14:45:06;;;;;;;40.80;22.07;;;;;;;7.88;78.10;100058.92;1803355;78;21220;-79
2022/12/23 14:48:43;;;;;;;45.50;21.65;;;;;;;7.76;78.38;100053.94;1785463;77;21279;-80
2022/12/23 14:51:52;;;;;;;38.60;21.68;;;;;;;7.75;78.78;100052.23;1794353;78;21815;-80
2022/12/23 14:55:00;;;;;;;34.85;19.80;;;;;;;7.78;78.76;100048.68;1821814;77;21208;-80
2022/12/23 14:58:30;;;;;;;37.70;19.85;;;;;;;7.77;78.75;100055.66;1804513;78;21216;-79
2022/12/23 15:01:43;;;;;;;34.00;20.17;;;;;;;7.81;78.69;100045.64;1758428;80;21791;-80
2022/12/23 15:04:56;;;;;;;35.05;21.00;;;;;;;7.62;79.09;100046.76;1757232;80;21680;-79
2022/12/23 15:08:03;;;;;;;37.75;20.45;;;;;;;7.71;78.98;100045.41;1740030;81;21228;-79
2022/12/23 15:11:02;;;;;;;29.77;18.62;;;;;;;7.59;79.35;100050.31;1775657;79;22079;-80
2022/12/23 15:14:03;;;;;;;31.35;19.30;;;;;;;7.51;79.67;100048.39;1766599;80;21242;-80
2022/12/23 15:17:33;;;;;;;38.53;20.65;;;;;;;7.51;79.75;100045.67;1762919;80;21241;-80
2022/12/23 15:20:39;;;;;;;36.00;20.02;;;;;;;7.48;79.87;100051.94;1754551;80;21188;-80